createdAt,value
2022-07-29T00:00:02.206Z,100640.75
2022-07-29T00:02:51.171Z,100638.55
2022-07-29T00:05:17.571Z,100638.19
2022-07-29T00:07:44.299Z,100638.64
2022-07-29T00:10:10.541Z,100634.73
2022-07-29T00:12:37.037Z,100632.25
2022-07-29T00:15:04.918Z,100631.48
2022-07-29T00:17:31.365Z,100633.08
2022-07-29T00:19:57.699Z,100631.83
2022-07-29T00:22:24.128Z,100629.55
2022-07-29T00:24:50.985Z,100630.00
2022-07-29T00:27:18.226Z,100631.98
2022-07-29T00:29:45.106Z,100630.98
2022-07-29T00:32:11.731Z,100629.87
2022-07-29T00:34:54.433Z,100627.02
2022-07-29T00:37:21.169Z,100628.23
2022-07-29T00:39:47.989Z,100630.56
2022-07-29T00:42:14.311Z,100631.75
2022-07-29T00:44:41.841Z,100633.55
2022-07-29T00:47:12.197Z,100638.27
2022-07-29T00:49:43.019Z,100638.51
2022-07-29T00:52:11.438Z,100635.31
2022-07-29T00:54:44.442Z,100635.83
2022-07-29T00:57:13.016Z,100640.73
2022-07-29T00:59:40.719Z,100639.27
2022-07-29T01:02:07.361Z,100640.09
2022-07-29T01:04:34.315Z,100641.16
2022-07-29T01:07:03.105Z,100648.15
2022-07-29T01:09:42.842Z,100644.64
2022-07-29T01:12:34.428Z,100647.40
2022-07-29T01:15:03.067Z,100650.98
2022-07-29T01:17:52.723Z,100651.96
2022-07-29T01:20:31.897Z,100650.09
2022-07-29T01:23:19.361Z,100653.14
2022-07-29T01:26:08.617Z,100649.90
2022-07-29T01:28:50.896Z,100655.12
2022-07-29T01:31:24.916Z,100654.61
2022-07-29T01:33:58.465Z,100654.02
2022-07-29T01:36:34.191Z,100649.92
2022-07-29T01:39:12.675Z,100651.45
2022-07-29T01:41:47.749Z,100652.16
2022-07-29T01:44:20.470Z,100652.45
2022-07-29T01:46:54.326Z,100651.21
2022-07-29T01:49:28.584Z,100648.87
2022-07-29T01:52:00.826Z,100646.27
2022-07-29T01:54:48.100Z,100649.64
2022-07-29T01:57:20.496Z,100648.60
2022-07-29T01:59:48.776Z,100646.20
2022-07-29T02:02:21.115Z,100643.11
2022-07-29T02:04:49.824Z,100641.95
2022-07-29T02:07:20.536Z,100639.73
2022-07-29T02:09:49.702Z,100642.02
2022-07-29T02:12:19.114Z,100642.89
2022-07-29T02:14:50.664Z,100644.16
2022-07-29T02:17:24.027Z,100648.51
2022-07-29T02:19:52.385Z,100653.31
2022-07-29T02:22:21.037Z,100652.02
2022-07-29T02:24:49.302Z,100653.66
2022-07-29T02:27:17.548Z,100651.66
2022-07-29T02:29:47.817Z,100654.95
2022-07-29T02:32:16.772Z,100654.70
2022-07-29T02:34:45.634Z,100660.73
2022-07-29T02:37:14.348Z,100661.33
2022-07-29T02:39:44.953Z,100659.17
2022-07-29T02:42:15.947Z,100655.23
2022-07-29T02:44:43.433Z,100654.55
2022-07-29T02:59:43.051Z,100650.52
2022-07-29T03:02:12.497Z,100646.13
2022-07-29T03:04:43.737Z,100650.55
2022-07-29T03:07:15.317Z,100649.00
2022-07-29T03:09:43.780Z,100642.94
2022-07-29T03:12:12.184Z,100640.61
2022-07-29T03:14:40.049Z,100641.11
2022-07-29T03:17:08.189Z,100643.33
2022-07-29T03:19:36.291Z,100640.70
2022-07-29T03:22:04.800Z,100641.55
2022-07-29T03:24:35.121Z,100641.54
2022-07-29T03:27:04.233Z,100641.36
2022-07-29T03:29:33.584Z,100644.75
2022-07-29T03:32:04.290Z,100642.63
2022-07-29T03:34:36.203Z,100647.55
2022-07-29T03:37:04.594Z,100651.45
2022-07-29T03:39:37.952Z,100653.16
2022-07-29T03:42:08.620Z,100648.47
2022-07-29T03:44:38.077Z,100648.54
2022-07-29T03:47:08.128Z,100650.77
2022-07-29T03:49:38.877Z,100654.30
2022-07-29T03:52:07.157Z,100655.88
2022-07-29T03:54:35.029Z,100656.52
2022-07-29T03:57:04.041Z,100656.17
2022-07-29T03:59:34.742Z,100661.48
2022-07-29T04:02:06.306Z,100661.45
2022-07-29T04:04:35.811Z,100659.22
2022-07-29T04:07:04.708Z,100654.13
2022-07-29T04:09:33.594Z,100648.30
2022-07-29T04:12:03.482Z,100647.27
2022-07-29T04:14:35.986Z,100652.55
2022-07-29T04:17:05.054Z,100653.79
2022-07-29T04:19:33.419Z,100651.91
2022-07-29T04:22:01.624Z,100650.70
2022-07-29T04:24:29.704Z,100650.59
2022-07-29T04:26:57.314Z,100646.83
2022-07-29T04:29:25.239Z,100648.78
2022-07-29T04:31:52.901Z,100649.03
2022-07-29T04:34:21.123Z,100650.54
2022-07-29T04:36:48.960Z,100653.77
2022-07-29T04:39:22.632Z,100651.78
2022-07-29T04:41:52.565Z,100652.47
2022-07-29T04:44:28.354Z,100648.98
2022-07-29T04:46:58.393Z,100646.02
2022-07-29T04:49:26.487Z,100652.05
2022-07-29T04:51:54.464Z,100649.55
2022-07-29T04:54:22.608Z,100652.14
2022-07-29T04:56:50.351Z,100645.09
2022-07-29T04:59:17.984Z,100647.01
2022-07-29T05:01:45.711Z,100643.69
2022-07-29T05:04:14.096Z,100644.77
2022-07-29T05:06:41.972Z,100648.13
2022-07-29T05:09:09.560Z,100645.76
2022-07-29T05:11:37.184Z,100649.45
2022-07-29T05:14:04.793Z,100651.41
2022-07-29T05:16:32.409Z,100652.03
2022-07-29T05:19:00.097Z,100650.16
2022-07-29T05:21:27.767Z,100655.06
2022-07-29T05:23:55.441Z,100655.20
2022-07-29T05:26:23.167Z,100659.08
2022-07-29T05:28:50.834Z,100658.15
2022-07-29T05:31:18.731Z,100657.23
2022-07-29T05:33:46.557Z,100658.38
2022-07-29T05:36:14.164Z,100656.14
2022-07-29T05:38:41.771Z,100655.73
2022-07-29T05:41:09.387Z,100653.56
2022-07-29T05:43:37.152Z,100654.90
2022-07-29T05:46:04.837Z,100658.67
2022-07-29T05:48:33.152Z,100655.12
2022-07-29T05:51:01.072Z,100650.92
2022-07-29T05:53:28.767Z,100653.35
2022-07-29T05:55:56.378Z,100658.59
2022-07-29T05:58:24.105Z,100661.73
2022-07-29T06:00:51.827Z,100665.73
2022-07-29T06:03:19.450Z,100660.15
2022-07-29T06:05:47.198Z,100657.50
2022-07-29T06:08:14.942Z,100655.67
2022-07-29T06:10:42.619Z,100652.42
2022-07-29T06:13:10.445Z,100648.45
2022-07-29T06:15:38.688Z,100650.35
2022-07-29T06:18:10.016Z,100654.73
2022-07-29T06:20:38.931Z,100653.98
2022-07-29T06:23:06.595Z,100650.30
2022-07-29T06:25:37.498Z,100651.58
2022-07-29T06:28:05.198Z,100648.84
2022-07-29T06:30:33.297Z,100654.38
2022-07-29T06:33:02.741Z,100655.08
2022-07-29T06:35:38.502Z,100659.87
2022-07-29T06:38:29.929Z,100658.63
2022-07-29T06:41:06.885Z,100654.89
2022-07-29T06:43:50.178Z,100658.36
2022-07-29T06:46:20.315Z,100659.26
2022-07-29T06:48:48.804Z,100662.05
2022-07-29T06:51:22.575Z,100658.67
2022-07-29T06:54:00.141Z,100661.95
2022-07-29T06:56:42.614Z,100660.70
2022-07-29T06:59:12.405Z,100659.30
2022-07-29T07:01:42.833Z,100658.02
2022-07-29T07:04:11.131Z,100664.61
2022-07-29T07:06:39.089Z,100660.92
2022-07-29T07:09:07.354Z,100660.83
2022-07-29T07:11:35.476Z,100658.94
2022-07-29T07:14:04.243Z,100654.62
2022-07-29T07:16:33.431Z,100648.00
2022-07-29T07:19:01.907Z,100644.98
2022-07-29T07:21:30.654Z,100646.62
2022-07-29T07:24:00.136Z,100644.20
2022-07-29T07:26:28.255Z,100648.12
2022-07-29T07:28:56.007Z,100646.02
2022-07-29T07:31:23.762Z,100642.16
2022-07-29T07:33:52.668Z,100643.90
2022-07-29T07:36:20.702Z,100647.08
2022-07-29T07:38:48.385Z,100645.48
2022-07-29T07:41:16.293Z,100644.50
2022-07-29T07:43:44.033Z,100648.22
2022-07-29T07:46:11.700Z,100646.25
2022-07-29T07:48:39.466Z,100645.02
2022-07-29T07:51:08.165Z,100642.87
2022-07-29T07:53:36.753Z,100642.43
2022-07-29T07:56:13.209Z,100646.79
2022-07-29T07:58:41.529Z,100645.13
2022-07-29T08:01:10.421Z,100640.64
2022-07-29T08:03:39.707Z,100648.47
2022-07-29T08:06:07.471Z,100650.65
2022-07-29T08:08:35.174Z,100655.16
2022-07-29T08:11:09.077Z,100655.85
2022-07-29T08:13:39.089Z,100657.52
2022-07-29T08:16:15.895Z,100654.36
2022-07-29T08:18:45.738Z,100655.77
2022-07-29T08:21:15.532Z,100655.84
2022-07-29T08:24:00.735Z,100655.88
2022-07-29T08:26:29.559Z,100655.50
2022-07-29T08:28:57.202Z,100653.46
2022-07-29T08:31:24.974Z,100651.25
2022-07-29T08:33:52.735Z,100648.83
2022-07-29T08:36:21.835Z,100650.77
2022-07-29T08:38:50.627Z,100648.94
2022-07-29T08:41:20.249Z,100648.05
2022-07-29T08:43:49.601Z,100645.76
2022-07-29T08:46:18.499Z,100641.75
2022-07-29T08:48:47.061Z,100643.52
2022-07-29T08:51:26.430Z,100642.74
2022-07-29T08:53:55.709Z,100635.45
2022-07-29T08:56:24.161Z,100631.17
2022-07-29T08:58:52.710Z,100631.29
2022-07-29T09:01:36.482Z,100631.02
2022-07-29T09:04:05.240Z,100632.01
2022-07-29T09:06:37.764Z,100634.73
2022-07-29T09:09:06.338Z,100636.89
2022-07-29T09:11:34.411Z,100636.82
2022-07-29T09:14:02.107Z,100637.04
2022-07-29T09:16:53.057Z,100637.50
2022-07-29T09:19:22.182Z,100637.63
2022-07-29T09:22:06.012Z,100638.27
2022-07-29T09:24:40.617Z,100637.66
2022-07-29T09:27:13.195Z,100637.87
2022-07-29T09:29:40.984Z,100635.36
2022-07-29T09:32:10.814Z,100631.83
2022-07-29T09:34:38.738Z,100633.78
2022-07-29T09:37:06.360Z,100630.06
2022-07-29T09:39:37.257Z,100628.91
2022-07-29T09:42:07.046Z,100623.79
2022-07-29T09:44:51.474Z,100623.42
2022-07-29T09:47:22.581Z,100624.79
2022-07-29T09:49:56.076Z,100625.95
2022-07-29T09:52:24.848Z,100625.58
2022-07-29T09:54:53.044Z,100623.88
2022-07-29T09:57:30.357Z,100621.46
2022-07-29T10:00:01.833Z,100619.20
2022-07-29T10:02:41.973Z,100619.59
2022-07-29T10:05:26.391Z,100615.51
2022-07-29T10:07:57.221Z,100612.39
2022-07-29T10:10:44.556Z,100609.73
2022-07-29T10:13:16.521Z,100603.10
2022-07-29T10:15:47.229Z,100599.70
2022-07-29T10:18:18.089Z,100596.38
2022-07-29T10:20:46.058Z,100591.20
2022-07-29T10:23:14.835Z,100589.85
2022-07-29T10:25:46.348Z,100591.65
2022-07-29T10:28:16.763Z,100586.97
2022-07-29T10:30:46.813Z,100586.77
2022-07-29T10:33:38.272Z,100585.80
2022-07-29T10:36:27.608Z,100587.79
2022-07-29T10:39:24.436Z,100589.14
2022-07-29T10:42:10.731Z,100587.23
2022-07-29T10:44:42.024Z,100581.23
2022-07-29T10:47:21.651Z,100582.66
2022-07-29T10:50:01.701Z,100575.86
2022-07-29T10:52:54.608Z,100576.94
2022-07-29T10:55:45.898Z,100581.77
2022-07-29T10:58:26.900Z,100577.65
2022-07-29T11:00:57.549Z,100584.45
2022-07-29T11:03:58.837Z,100582.36
2022-07-29T11:07:05.245Z,100577.41
2022-07-29T11:09:37.643Z,100571.98
2022-07-29T11:12:42.207Z,100568.35
2022-07-29T11:15:19.812Z,100565.21
2022-07-29T11:18:03.371Z,100567.07
2022-07-29T11:20:50.102Z,100565.02
2022-07-29T11:23:33.687Z,100564.65
2022-07-29T11:26:35.406Z,100563.45
2022-07-29T11:29:21.850Z,100566.70
2022-07-29T11:31:55.672Z,100562.42
2022-07-29T11:34:33.249Z,100562.91
2022-07-29T11:37:14.885Z,100560.91
2022-07-29T11:40:10.677Z,100558.60
2022-07-29T11:42:41.737Z,100558.41
2022-07-29T11:45:43.218Z,100557.17
2022-07-29T11:48:29.686Z,100556.95
2022-07-29T11:50:50.641Z,100549.65
2022-07-29T11:53:19.317Z,100547.64
2022-07-29T11:55:56.235Z,100543.59
2022-07-29T11:58:27.077Z,100547.36
2022-07-29T12:00:56.248Z,100545.73
2022-07-29T12:03:33.365Z,100542.94
2022-07-29T12:06:13.405Z,100542.92
2022-07-29T12:08:43.693Z,100541.41
2022-07-29T12:11:21.257Z,100543.38
2022-07-29T12:13:53.796Z,100538.55
2022-07-29T12:16:25.573Z,100540.10
2022-07-29T12:18:59.261Z,100537.49
2022-07-29T12:21:28.860Z,100534.90
2022-07-29T12:24:04.807Z,100533.80
2022-07-29T12:26:37.767Z,100538.42
2022-07-29T12:29:07.302Z,100538.80
2022-07-29T12:31:42.835Z,100533.64
2022-07-29T12:34:16.587Z,100537.20
2022-07-29T12:36:44.847Z,100540.16
2022-07-29T12:39:13.372Z,100543.84
2022-07-29T12:41:41.113Z,100542.64
2022-07-29T12:44:09.069Z,100541.91
2022-07-29T12:46:36.774Z,100538.95
2022-07-29T12:49:05.352Z,100536.23
2022-07-29T12:51:38.818Z,100535.55
2022-07-29T12:54:15.306Z,100528.98
2022-07-29T12:56:45.449Z,100526.52
2022-07-29T12:59:23.852Z,100526.36
2022-07-29T13:01:52.999Z,100524.13
2022-07-29T13:04:37.569Z,100521.63
2022-07-29T13:07:08.073Z,100522.48
2022-07-29T13:09:41.582Z,100519.97
2022-07-29T13:12:11.707Z,100513.12
2022-07-29T13:14:44.839Z,100519.45
2022-07-29T13:17:28.743Z,100516.87
2022-07-29T13:20:13.182Z,100514.78
2022-07-29T13:22:43.293Z,100515.02
2022-07-29T13:25:11.466Z,100510.47
2022-07-29T13:27:40.478Z,100505.30
2022-07-29T13:30:10.206Z,100501.96
2022-07-29T13:32:38.680Z,100506.30
2022-07-29T13:35:08.877Z,100503.90
2022-07-29T13:37:39.284Z,100497.65
2022-07-29T13:40:11.914Z,100497.17
2022-07-29T13:42:40.056Z,100493.20
2022-07-29T13:45:08.941Z,100490.73
2022-07-29T13:47:36.588Z,100483.41
2022-07-29T13:50:06.320Z,100479.52
2022-07-29T13:52:35.412Z,100479.88
2022-07-29T13:55:04.618Z,100477.30
2022-07-29T13:57:32.785Z,100479.77
2022-07-29T14:00:00.461Z,100479.30
2022-07-29T14:02:28.173Z,100475.63
2022-07-29T14:04:55.984Z,100476.47
2022-07-29T14:07:24.483Z,100472.33
2022-07-29T14:09:52.154Z,100471.39
2022-07-29T14:12:20.200Z,100470.41
2022-07-29T14:14:47.793Z,100468.63
2022-07-29T14:17:16.333Z,100467.71
2022-07-29T14:19:44.087Z,100468.98
2022-07-29T14:22:11.879Z,100465.70
2022-07-29T14:24:40.192Z,100460.48
2022-07-29T14:27:08.765Z,100458.91
2022-07-29T14:29:38.771Z,100458.27
2022-07-29T14:32:08.461Z,100456.49
2022-07-29T14:34:37.559Z,100463.83
2022-07-29T14:37:09.314Z,100459.73
2022-07-29T14:39:42.925Z,100458.16
2022-07-29T14:42:13.051Z,100455.88
2022-07-29T14:44:42.383Z,100450.84
2022-07-29T14:47:10.405Z,100444.83
2022-07-29T14:49:38.032Z,100447.39
2022-07-29T14:52:06.006Z,100443.70
2022-07-29T14:54:33.679Z,100443.17
2022-07-29T14:57:01.783Z,100441.59
2022-07-29T14:59:29.464Z,100437.71
2022-07-29T15:01:57.474Z,100440.79
2022-07-29T15:04:25.385Z,100441.74
2022-07-29T15:06:53.023Z,100440.25
2022-07-29T15:09:20.631Z,100441.92
2022-07-29T15:11:48.493Z,100442.13
2022-07-29T15:14:16.125Z,100440.10
2022-07-29T15:16:46.738Z,100437.92
2022-07-29T15:19:15.987Z,100437.47
2022-07-29T15:21:48.838Z,100433.76
2022-07-29T15:24:18.059Z,100422.95
2022-07-29T15:26:46.977Z,100417.27
2022-07-29T15:29:15.680Z,100415.85
2022-07-29T15:31:44.127Z,100414.44
2022-07-29T15:34:12.000Z,100412.62
2022-07-29T15:36:55.552Z,100410.38
2022-07-29T15:39:23.406Z,100414.30
2022-07-29T15:41:52.110Z,100413.70
2022-07-29T15:44:21.161Z,100416.30
2022-07-29T15:47:05.798Z,100414.27
2022-07-29T15:49:48.819Z,100408.13
2022-07-29T15:52:25.039Z,100404.80
2022-07-29T15:54:55.830Z,100402.64
2022-07-29T15:57:24.767Z,100393.19
2022-07-29T15:59:52.617Z,100390.13
2022-07-29T16:02:20.709Z,100389.39
2022-07-29T16:04:48.469Z,100385.64
2022-07-29T16:07:16.392Z,100380.04
2022-07-29T16:09:50.777Z,100381.64
2022-07-29T16:12:20.819Z,100380.23
2022-07-29T16:14:50.757Z,100379.11
2022-07-29T16:17:19.257Z,100379.42
2022-07-29T16:19:48.105Z,100384.19
2022-07-29T16:22:15.807Z,100378.73
2022-07-29T16:24:43.681Z,100383.61
2022-07-29T16:27:11.356Z,100378.29
2022-07-29T16:29:39.572Z,100371.63
2022-07-29T16:32:07.481Z,100371.31
2022-07-29T16:34:35.218Z,100370.69
2022-07-29T16:37:03.575Z,100371.02
2022-07-29T16:39:31.487Z,100366.69
2022-07-29T16:42:01.011Z,100373.08
2022-07-29T16:44:30.095Z,100376.20
2022-07-29T16:46:58.821Z,100375.30
2022-07-29T16:49:28.285Z,100372.79
2022-07-29T16:51:56.043Z,100378.39
2022-07-29T16:54:23.668Z,100382.47
2022-07-29T16:56:51.281Z,100380.86
2022-07-29T16:59:18.942Z,100387.13
2022-07-29T17:01:46.700Z,100386.27
2022-07-29T17:04:15.026Z,100386.09
2022-07-29T17:06:42.973Z,100383.11
2022-07-29T17:09:15.080Z,100383.95
2022-07-29T17:11:53.654Z,100380.80
2022-07-29T17:14:25.526Z,100379.78
2022-07-29T17:17:02.587Z,100378.77
2022-07-29T17:19:35.212Z,100380.38
2022-07-29T17:22:18.686Z,100385.65
2022-07-29T17:24:47.941Z,100385.20
2022-07-29T17:27:16.779Z,100387.41
2022-07-29T17:29:46.926Z,100388.10
2022-07-29T17:32:14.569Z,100390.16
2022-07-29T17:34:42.971Z,100392.98
2022-07-29T17:37:12.051Z,100392.42
2022-07-29T17:39:41.453Z,100396.94
2022-07-29T17:42:14.167Z,100398.96
2022-07-29T17:44:41.990Z,100399.86
2022-07-29T17:47:15.708Z,100402.02
2022-07-29T17:49:45.293Z,100399.35
2022-07-29T17:52:13.280Z,100401.95
2022-07-29T17:54:40.970Z,100404.09
2022-07-29T17:57:08.695Z,100405.27
2022-07-29T17:59:36.691Z,100410.27
2022-07-29T18:02:04.459Z,100409.80
2022-07-29T18:04:32.338Z,100412.38
2022-07-29T18:07:00.465Z,100412.98
2022-07-29T18:09:28.879Z,100412.73
2022-07-29T18:11:56.488Z,100410.34
2022-07-29T18:14:24.096Z,100414.50
2022-07-29T18:16:51.847Z,100412.92
2022-07-29T18:19:19.477Z,100414.65
2022-07-29T18:21:54.010Z,100417.57
2022-07-29T18:24:25.693Z,100420.08
2022-07-29T18:26:53.975Z,100419.66
2022-07-29T18:29:22.051Z,100422.11
2022-07-29T18:31:50.313Z,100421.77
2022-07-29T18:34:18.165Z,100415.39
2022-07-29T18:36:46.234Z,100417.80
2022-07-29T18:39:19.187Z,100410.19
2022-07-29T18:41:51.391Z,100404.19
2022-07-29T18:44:21.829Z,100406.36
2022-07-29T18:46:52.420Z,100404.02
2022-07-29T18:49:20.300Z,100404.46
2022-07-29T18:51:49.422Z,100405.67
2022-07-29T18:54:17.941Z,100408.38
2022-07-29T18:56:46.804Z,100407.78
2022-07-29T18:59:20.436Z,100410.08
2022-07-29T19:01:49.239Z,100414.66
2022-07-29T19:04:17.665Z,100414.30
2022-07-29T19:06:45.421Z,100413.86
2022-07-29T19:09:13.619Z,100415.81
2022-07-29T19:11:41.577Z,100420.40
2022-07-29T19:14:09.275Z,100419.29
2022-07-29T19:16:36.944Z,100421.45
2022-07-29T19:19:04.776Z,100423.63
2022-07-29T19:21:32.544Z,100426.83
2022-07-29T19:24:06.750Z,100431.71
2022-07-29T19:26:36.793Z,100438.79
2022-07-29T19:29:04.725Z,100438.58
2022-07-29T19:31:32.716Z,100439.80
2022-07-29T19:34:00.507Z,100441.48
2022-07-29T19:36:28.336Z,100443.64
2022-07-29T19:38:55.977Z,100442.45
2022-07-29T19:41:23.590Z,100441.06
2022-07-29T19:43:53.108Z,100440.23
2022-07-29T19:46:22.125Z,100442.80
2022-07-29T19:48:50.357Z,100440.20
2022-07-29T19:51:18.076Z,100442.53
2022-07-29T19:53:45.734Z,100450.20
2022-07-29T19:56:13.811Z,100448.07
2022-07-29T19:58:44.001Z,100451.29
2022-07-29T20:01:11.741Z,100451.25
2022-07-29T20:03:40.181Z,100449.66
2022-07-29T20:06:08.481Z,100444.05
2022-07-29T20:08:36.749Z,100447.83
2022-07-29T20:11:05.419Z,100445.70
2022-07-29T20:13:35.183Z,100446.67
2022-07-29T20:16:06.374Z,100445.98
2022-07-29T20:18:35.090Z,100442.13
2022-07-29T20:21:04.656Z,100442.02
2022-07-29T20:23:33.474Z,100446.75
2022-07-29T20:26:02.442Z,100444.40
2022-07-29T20:28:31.248Z,100449.42
2022-07-29T20:30:58.984Z,100443.54
2022-07-29T20:33:26.723Z,100447.33
2022-07-29T20:35:55.727Z,100448.23
2022-07-29T20:38:23.333Z,100449.57
2022-07-29T20:40:52.747Z,100452.11
2022-07-29T20:43:20.346Z,100454.20
2022-07-29T20:45:48.777Z,100454.32
2022-07-29T20:48:16.560Z,100456.63
2022-07-29T20:50:45.030Z,100460.67
2022-07-29T20:53:12.774Z,100459.48
2022-07-29T20:55:40.610Z,100457.77
2022-07-29T20:58:08.619Z,100460.31
2022-07-29T21:00:36.633Z,100458.67
2022-07-29T21:03:04.435Z,100460.51
2022-07-29T21:05:32.731Z,100461.38
2022-07-29T21:08:00.490Z,100462.26
2022-07-29T21:10:29.317Z,100459.85
2022-07-29T21:12:56.930Z,100461.75
2022-07-29T21:15:25.255Z,100461.90
2022-07-29T21:18:00.366Z,100458.20
2022-07-29T21:20:29.141Z,100457.60
2022-07-29T21:22:57.837Z,100452.21
2022-07-29T21:25:26.092Z,100448.27
2022-07-29T21:28:09.742Z,100450.59
2022-07-29T21:30:37.374Z,100446.71
2022-07-29T21:33:05.094Z,100444.17
2022-07-29T21:36:07.382Z,100440.15
2022-07-29T21:38:20.815Z,100439.35
2022-07-29T21:40:50.519Z,100442.16
2022-07-29T21:43:19.379Z,100441.64
2022-07-29T21:45:52.919Z,100437.94
2022-07-29T21:48:22.709Z,100441.63
2022-07-29T21:50:53.102Z,100442.28
2022-07-29T21:53:22.085Z,100442.52
2022-07-29T21:55:51.117Z,100440.79
2022-07-29T21:58:19.021Z,100436.64
2022-07-29T22:00:46.688Z,100437.88
2022-07-29T22:03:14.667Z,100439.83
2022-07-29T22:05:42.554Z,100439.55
2022-07-29T22:08:10.447Z,100438.39
2022-07-29T22:10:38.171Z,100441.91
2022-07-29T22:13:06.084Z,100441.23
2022-07-29T22:15:33.832Z,100442.63
2022-07-29T22:18:01.817Z,100439.19
2022-07-29T22:20:29.452Z,100438.10
2022-07-29T22:22:57.110Z,100437.88
2022-07-29T22:25:24.842Z,100433.57
2022-07-29T22:27:52.543Z,100434.50
2022-07-29T22:30:20.135Z,100432.05
2022-07-29T22:32:49.511Z,100431.80
2022-07-29T22:35:17.575Z,100429.67
2022-07-29T22:37:45.235Z,100428.15
2022-07-29T22:40:12.910Z,100430.75
2022-07-29T22:42:40.692Z,100430.33
2022-07-29T22:45:10.585Z,100426.25
2022-07-29T22:47:47.946Z,100421.09
2022-07-29T22:50:17.073Z,100415.06
2022-07-29T22:52:46.097Z,100412.25
2022-07-29T22:55:14.015Z,100406.09
2022-07-29T22:57:41.675Z,100408.00
2022-07-29T23:00:12.635Z,100410.62
2022-07-29T23:02:41.405Z,100410.44
2022-07-29T23:05:10.098Z,100408.26
2022-07-29T23:07:37.698Z,100404.64
2022-07-29T23:10:07.612Z,100400.88
2022-07-29T23:12:35.888Z,100398.57
2022-07-29T23:15:05.691Z,100400.17
2022-07-29T23:17:36.294Z,100397.93
2022-07-29T23:20:07.831Z,100401.83
2022-07-29T23:22:35.933Z,100403.30
2022-07-29T23:25:04.820Z,100405.63
2022-07-29T23:27:32.780Z,100407.63
2022-07-29T23:30:00.465Z,100402.77
2022-07-29T23:32:28.086Z,100403.55
2022-07-29T23:34:55.749Z,100400.40
2022-07-29T23:37:23.512Z,100403.08
2022-07-29T23:39:51.160Z,100403.46
2022-07-29T23:42:18.807Z,100407.27
2022-07-29T23:44:46.452Z,100407.38
2022-07-29T23:47:14.149Z,100408.16
2022-07-29T23:49:41.799Z,100407.02
2022-07-29T23:52:09.538Z,100408.34
2022-07-29T23:54:37.186Z,100411.63
2022-07-29T23:57:04.928Z,100414.00
2022-07-29T23:59:32.578Z,100414.73
